.
WxDataArchive / Data Records for 2007-12-02
2007-12-01 December 2007 2007-12-03

Data Records for Sunday, 02 December 2007

Time	Temp	Chill	HIndex	Humid	Dewpt	 Wind 	HiWind	WindDir	Rain 	Barom 
-----	----	-----	------	-----	-----	------	------	-------	-----	----- 
00:00	31.9	31.9	31.9	65	21.5	3	7	90	0.00	29.951 
00:05	32.1	32.1	32.1	64	21.3	2	7	112	0.00	29.955 
00:10	32.2	32.2	32.2	65	21.8	2	5	90	0.00	29.958 
00:15	32.4	32.4	32.4	65	22.0	1	3	112	0.00	29.970 
00:20	32.5	32.5	32.5	64	21.7	1	4	90	0.00	29.971 
00:25	32.5	32.5	32.5	64	21.7	0	1	135	0.00	29.981 
00:30	32.7	32.7	32.7	65	22.3	0	3	90	0.00	29.988 
00:35	32.8	32.8	32.8	65	22.3	0	1	90	0.00	30.009 
00:40	32.8	32.8	32.8	68	23.4	0	2	90	0.00	29.993 
00:45	32.7	32.7	32.7	69	23.7	0	2	90	0.00	29.986 
00:50	32.7	32.7	32.7	74	25.3	0	0	---	0.00	29.998 
00:55	32.5	32.5	32.5	77	26.1	0	1	90	0.01	29.990 
01:00	32.4	32.4	32.4	78	26.3	0	1	90	0.01	29.989 
01:05	32.4	32.4	32.4	80	26.9	0	1	90	0.02	29.984 
01:10	32.2	32.2	32.2	81	27.0	1	2	90	0.01	29.972 
01:15	32.1	32.1	32.1	82	27.2	1	3	90	0.00	29.969 
01:20	32.1	32.1	32.1	82	27.2	1	2	90	0.01	29.969 
01:25	32.1	32.1	32.1	82	27.2	1	3	90	0.00	29.973 
01:30	32.1	32.1	32.1	83	27.5	0	2	90	0.01	29.983 
01:35	32.1	32.1	32.1	84	27.8	0	1	90	0.02	29.985 
01:40	32.1	32.1	32.1	84	27.8	0	1	90	0.02	29.985 
01:45	32.1	32.1	32.1	85	28.1	0	2	90	0.01	29.977 
01:50	32.1	32.1	32.1	86	28.4	1	2	90	0.00	29.972 
01:55	31.9	31.9	31.9	87	28.5	1	3	90	0.01	29.965 
02:00	31.9	31.9	31.9	87	28.5	1	3	90	0.01	29.960 
02:05	31.9	31.9	31.9	87	28.5	1	2	90	0.00	29.967 
02:10	31.9	31.9	31.9	87	28.5	1	2	90	0.00	29.961 
02:15	31.9	31.9	31.9	87	28.5	0	2	90	0.00	29.961 
02:20	31.9	31.9	31.9	88	28.8	0	2	90	0.00	29.960 
02:25	31.9	31.9	31.9	88	28.8	1	2	90	0.00	29.960 
02:30	31.9	31.9	31.9	88	28.8	1	2	90	0.00	29.955 
02:35	31.9	31.9	31.9	88	28.8	1	2	90	0.01	29.950 
02:40	31.9	31.9	31.9	89	29.0	1	4	90	0.01	29.951 
02:45	31.9	31.9	31.9	89	29.0	1	3	90	0.00	29.945 
02:50	31.9	31.9	31.9	90	29.3	1	3	90	0.00	29.942 
02:55	31.9	31.9	31.9	90	29.3	1	3	90	0.00	29.942 
03:00	31.9	31.9	31.9	90	29.3	1	4	90	0.01	29.940 
03:05	32.1	32.1	32.1	90	29.5	0	2	90	0.01	29.938 
03:10	32.1	32.1	32.1	91	29.8	0	0	---	0.00	29.934 
03:15	32.1	32.1	32.1	91	29.8	0	0	---	0.00	29.931 
03:20	32.1	32.1	32.1	91	29.8	0	0	---	0.00	29.929 
03:25	32.2	32.2	32.2	91	29.9	0	0	---	0.00	29.926 
03:30	32.2	32.2	32.2	91	29.9	0	0	---	0.00	29.924 
03:35	32.4	32.4	32.4	91	30.1	0	0	---	0.00	29.922 
03:40	32.5	32.5	32.5	91	30.2	0	0	---	0.00	29.922 
03:45	32.7	32.7	32.7	92	30.6	0	0	---	0.00	29.920 
03:50	32.7	32.7	32.7	92	30.6	0	0	---	0.00	29.919 
03:55	32.7	32.7	32.7	92	30.6	0	0	---	0.00	29.911 
04:00	32.8	32.8	32.8	92	30.7	0	0	---	0.00	29.915 
04:05	32.8	32.8	32.8	92	30.7	0	0	---	0.00	29.910 
04:10	32.9	32.9	32.9	92	30.8	0	0	---	0.00	29.910 
04:15	32.9	32.9	32.9	92	30.8	0	0	---	0.01	29.907 
04:20	32.9	32.9	32.9	93	31.1	0	0	---	0.00	29.903 
04:25	33.1	33.1	33.1	93	31.3	0	0	---	0.00	29.905 
04:30	33.1	33.1	33.1	93	31.3	0	0	---	0.00	29.900 
04:35	33.2	33.2	33.2	93	31.4	0	0	---	0.00	29.899 
04:40	33.4	33.4	33.4	93	31.6	0	0	---	0.00	29.893 
04:45	33.4	33.4	33.4	93	31.6	0	0	---	0.00	29.893 
04:50	33.4	33.4	33.4	93	31.6	0	0	---	0.00	29.895 
04:55	33.4	33.4	33.4	93	31.6	0	0	---	0.01	29.898 
05:00	33.4	33.4	33.4	93	31.6	0	0	---	0.00	29.895 
05:05	33.4	33.4	33.4	93	31.6	0	0	---	0.00	29.894 
05:10	33.4	33.4	33.4	93	31.6	0	0	---	0.00	29.893 
05:15	33.4	33.4	33.4	94	31.9	0	0	---	0.00	29.891 
05:20	33.5	33.5	33.5	94	32.0	0	0	---	0.00	29.888 
05:25	33.5	33.5	33.5	94	32.0	0	0	---	0.00	29.890 
05:30	33.7	33.7	33.7	94	32.2	0	0	---	0.00	29.889 
05:35	33.7	33.7	33.7	94	32.2	0	0	---	0.00	29.886 
05:40	33.8	33.8	33.8	94	32.3	0	0	---	0.01	29.884 
05:45	33.8	33.8	33.8	94	32.3	0	0	---	0.00	29.880 
05:50	34.0	34.0	34.0	95	32.7	0	1	90	0.00	29.882 
05:55	34.3	34.3	34.3	95	33.0	0	1	90	0.00	29.876 
06:00	34.3	34.3	34.3	95	33.0	0	1	90	0.00	29.877 
06:05	34.4	34.4	34.4	95	33.1	0	1	90	0.00	29.875 
06:10	34.6	34.6	34.6	95	33.3	0	2	112	0.00	29.873 
06:15	34.7	34.7	34.7	95	33.4	0	1	112	0.00	29.873 
06:20	35.0	35.0	35.0	95	33.7	0	0	---	0.01	29.873 
06:25	35.2	35.2	35.2	95	33.9	0	0	---	0.00	29.872 
06:30	35.5	35.5	35.5	96	34.5	0	1	112	0.00	29.868 
06:35	36.0	36.0	36.0	96	35.0	0	0	---	0.00	29.869 
06:40	36.9	36.9	36.9	96	35.9	0	1	112	0.00	29.866 
06:45	37.5	37.5	37.5	96	36.5	0	1	112	0.00	29.863 
06:50	38.3	38.3	38.3	96	37.3	0	1	112	0.00	29.862 
06:55	38.9	38.9	38.9	96	37.9	0	2	112	0.01	29.867 
07:00	39.5	39.5	39.5	96	38.5	0	3	248	0.00	29.863 
07:05	40.1	40.1	40.1	96	39.1	1	3	248	0.00	29.860 
07:10	40.5	40.5	40.5	97	39.7	0	3	248	0.00	29.855 
07:15	40.9	40.9	40.9	97	40.1	1	3	248	0.00	29.855 
07:20	41.2	41.2	41.2	97	40.4	0	5	225	0.00	29.855 
07:25	41.3	41.3	41.3	96	40.2	0	2	225	0.00	29.859 
07:30	41.6	41.6	41.6	96	40.5	1	4	45	0.00	29.859 
07:35	41.9	41.9	41.9	96	40.8	1	3	248	0.00	29.858 
07:40	42.2	42.2	42.2	96	41.1	1	6	248	0.00	29.851 
07:45	42.6	42.6	42.6	96	41.5	1	11	248	0.00	29.854 
07:50	42.8	42.8	42.8	96	41.7	1	4	270	0.00	29.857 
07:55	43.2	43.2	43.2	96	42.1	2	4	248	0.00	29.856 
08:00	43.6	43.6	43.6	96	42.5	3	6	248	0.00	29.855 
08:05	43.9	43.9	43.9	96	42.8	2	4	248	0.01	29.854 
08:10	44.2	44.2	44.2	95	42.9	2	5	248	0.00	29.855 
08:15	44.8	44.8	44.8	95	43.5	3	7	248	0.00	29.857 
08:20	45.2	45.2	45.2	94	43.6	3	7	248	0.00	29.857 
08:25	45.4	45.4	45.4	93	43.5	2	5	248	0.00	29.855 
08:30	45.7	45.7	45.7	92	43.5	2	6	248	0.00	29.855 
08:35	46.0	46.0	46.0	92	43.8	2	11	248	0.00	29.851 
08:40	46.2	46.2	46.2	91	43.7	2	7	248	0.00	29.846 
08:45	46.4	46.4	46.4	91	43.9	2	6	248	0.00	29.850 
08:50	46.5	46.5	46.5	91	44.0	2	7	248	0.00	29.845 
08:55	46.8	46.8	46.8	90	44.0	3	7	248	0.00	29.846 
09:00	47.0	47.0	47.0	90	44.2	2	5	248	0.00	29.848 
09:05	47.3	47.3	47.3	90	44.5	2	6	270	0.00	29.844 
09:10	47.4	47.4	47.4	90	44.6	2	9	270	0.00	29.847 
09:15	47.7	47.7	47.7	90	44.9	3	7	248	0.00	29.843 
09:20	48.0	48.0	48.0	89	44.9	3	7	248	0.00	29.842 
09:25	48.2	46.8	48.2	89	45.1	4	12	248	0.00	29.842 
09:30	48.5	48.5	48.5	89	45.4	3	10	248	0.00	29.843 
09:35	48.6	48.6	48.6	89	45.5	3	9	248	0.00	29.842 
09:40	48.8	48.8	48.8	88	45.4	3	6	248	0.00	29.843 
09:45	48.9	48.9	48.9	88	45.5	3	9	248	0.00	29.842 
09:50	49.1	49.1	49.1	88	45.7	3	7	248	0.00	29.843 
09:55	49.2	49.2	49.2	88	45.8	3	9	248	0.00	29.844 
10:00	49.5	49.5	49.5	88	46.1	3	8	270	0.00	29.843 
10:05	49.6	49.6	49.6	88	46.2	3	9	248	0.00	29.841 
10:10	49.8	49.8	49.8	88	46.4	2	6	248	0.00	29.840 
10:15	49.9	49.9	49.9	88	46.5	3	7	248	0.00	29.839 
10:20	50.4	50.4	50.4	87	46.7	3	8	248	0.00	29.840 
10:25	50.5	50.5	50.5	87	46.8	3	10	248	0.00	29.838 
10:30	50.7	50.7	50.7	87	47.0	3	6	248	0.00	29.830 
10:35	50.8	50.8	50.8	87	47.1	3	10	248	0.00	29.830 
10:40	51.0	51.0	51.0	87	47.3	3	9	248	0.00	29.826 
10:45	51.0	51.0	51.0	87	47.3	3	5	248	0.00	29.825 
10:50	51.1	51.1	51.1	87	47.4	3	12	248	0.00	29.823 
10:55	51.3	51.3	51.3	87	47.6	2	9	248	0.00	29.822 
11:00	51.4	51.4	51.4	87	47.7	2	6	248	0.00	29.821 
11:05	51.4	51.4	51.4	87	47.7	2	9	270	0.00	29.819 
11:10	51.6	51.6	51.6	87	47.9	2	9	248	0.00	29.814 
11:15	51.6	51.6	51.6	87	47.9	2	10	248	0.00	29.806 
11:20	51.6	51.6	51.6	87	47.9	2	6	248	0.00	29.803 
11:25	51.7	51.7	51.7	88	48.3	2	7	270	0.00	29.803 
11:30	52.2	52.2	52.2	88	48.8	2	7	248	0.00	29.793 
11:35	52.6	52.6	52.6	88	49.1	2	6	248	0.00	29.787 
11:40	52.9	52.9	52.9	87	49.1	2	7	270	0.00	29.781 
11:45	53.2	53.2	53.2	87	49.4	3	10	248	0.00	29.775 
11:50	53.3	53.3	53.3	87	49.5	2	7	248	0.00	29.773 
11:55	53.5	53.5	53.5	87	49.7	4	11	248	0.00	29.768 
12:00	53.5	53.5	53.5	87	49.7	2	7	248	0.00	29.768 
12:05	53.5	53.5	53.5	88	50.0	2	11	248	0.00	29.757 
12:10	53.5	53.5	53.5	88	50.0	3	10	270	0.00	29.755 
12:15	53.5	53.5	53.5	88	50.0	2	9	248	0.00	29.755 
12:20	53.5	53.5	53.5	88	50.0	3	10	270	0.00	29.752 
12:25	53.5	53.5	53.5	88	50.0	3	9	248	0.00	29.751 
12:30	53.3	53.3	53.3	89	50.1	2	7	248	0.00	29.749 
12:35	53.3	53.3	53.3	89	50.1	3	6	248	0.00	29.743 
12:40	53.3	53.3	53.3	89	50.1	3	12	270	0.00	29.739 
12:45	53.3	53.3	53.3	90	50.4	3	6	225	0.00	29.725 
12:50	53.5	53.5	53.5	90	50.6	3	6	270	0.00	29.725 
12:55	53.5	53.5	53.5	90	50.6	3	10	248	0.00	29.716 
13:00	53.5	53.5	53.5	90	50.6	2	7	248	0.00	29.709 
13:05	53.6	53.6	53.6	90	50.7	4	10	248	0.00	29.708 
13:10	53.6	53.6	53.6	90	50.7	3	13	270	0.00	29.710 
13:15	53.6	53.6	53.6	90	50.7	3	7	248	0.00	29.708 
13:20	53.5	53.5	53.5	90	50.6	2	6	248	0.00	29.704 
13:25	53.5	53.5	53.5	91	50.9	3	9	248	0.00	29.698 
13:30	53.5	53.5	53.5	91	50.9	2	5	248	0.00	29.679 
13:35	53.5	53.5	53.5	91	50.9	3	11	248	0.00	29.676 
13:40	53.5	53.5	53.5	92	51.2	2	7	270	0.00	29.677 
13:45	53.5	53.5	53.5	92	51.2	4	11	270	0.00	29.691 
13:50	53.5	53.5	53.5	92	51.2	3	7	248	0.00	29.690 
13:55	53.5	53.5	53.5	91	50.9	2	6	248	0.00	29.678 
14:00	53.5	53.5	53.5	92	51.2	3	10	225	0.00	29.671 
14:05	53.5	53.5	53.5	92	51.2	3	10	248	0.00	29.667 
14:10	53.5	53.5	53.5	92	51.2	3	9	248	0.00	29.659 
14:15	53.5	53.5	53.5	92	51.2	2	7	248	0.00	29.660 
14:20	53.5	53.5	53.5	92	51.2	4	13	248	0.00	29.659 
14:25	53.5	53.5	53.5	93	51.5	2	7	248	0.05	29.651 
14:30	53.3	53.3	53.3	94	51.6	3	9	270	0.00	29.652 
14:35	53.3	53.3	53.3	94	51.6	2	6	248	0.01	29.651 
14:40	53.3	53.3	53.3	94	51.6	2	9	248	0.01	29.647 
14:45	53.3	53.3	53.3	95	51.9	3	10	270	0.00	29.645 
14:50	53.3	53.3	53.3	95	51.9	2	5	248	0.00	29.643 
14:55	53.2	53.2	53.2	95	51.8	2	8	248	0.00	29.641 
15:00	53.3	53.3	53.3	95	51.9	4	7	248	0.01	29.643 
15:05	53.3	53.3	53.3	95	51.9	3	6	248	0.01	29.633 
15:10	53.3	53.3	53.3	95	51.9	3	10	248	0.01	29.630 
15:15	53.5	53.5	53.5	96	52.4	2	7	248	0.01	29.628 
15:20	53.5	53.5	53.5	96	52.4	2	6	248	0.00	29.625 
15:25	53.5	53.5	53.5	96	52.4	3	6	248	0.00	29.620 
15:30	53.5	53.5	53.5	96	52.4	3	6	248	0.00	29.613 
15:35	53.6	53.6	53.6	96	52.5	2	9	270	0.00	29.609 
15:40	53.6	53.6	53.6	96	52.5	2	6	248	0.00	29.611 
15:45	53.6	53.6	53.6	96	52.5	2	7	248	0.00	29.610 
15:50	53.6	53.6	53.6	96	52.5	2	6	248	0.00	29.612 
15:55	53.6	53.6	53.6	96	52.5	3	13	248	0.01	29.617 
16:00	53.8	53.8	53.8	96	52.7	3	7	248	0.02	29.628 
16:05	53.8	53.8	53.8	96	52.7	4	9	248	0.01	29.617 
16:10	53.8	53.8	53.8	96	52.7	4	11	248	0.00	29.621 
16:15	53.8	53.8	53.8	96	52.7	3	7	248	0.00	29.614 
16:20	53.8	53.8	53.8	96	52.7	3	6	248	0.00	29.619 
16:25	53.8	53.8	53.8	96	52.7	3	11	248	0.00	29.623 
16:30	53.8	53.8	53.8	96	52.7	3	7	248	0.00	29.627 
16:35	53.8	53.8	53.8	96	52.7	3	11	248	0.00	29.627 
16:40	53.8	53.8	53.8	96	52.7	3	9	248	0.00	29.628 
16:45	53.9	53.9	53.9	96	52.8	5	13	248	0.00	29.625 
16:50	53.9	53.9	53.9	96	52.8	4	11	248	0.01	29.618 
16:55	53.9	53.9	53.9	96	52.8	3	8	248	0.00	29.615 
17:00	53.8	53.8	53.8	96	52.7	3	6	248	0.01	29.619 
17:05	53.9	53.9	53.9	96	52.8	4	12	248	0.00	29.615 
17:10	53.8	53.8	53.8	96	52.7	3	8	248	0.01	29.610 
17:15	53.8	53.8	53.8	96	52.7	3	6	248	0.00	29.598 
17:20	53.8	53.8	53.8	96	52.7	3	7	248	0.01	29.596 
17:25	53.8	53.8	53.8	96	52.7	3	7	248	0.00	29.597 
17:30	53.8	53.8	53.8	96	52.7	3	9	248	0.00	29.595 
17:35	53.8	53.8	53.8	96	52.7	3	8	248	0.00	29.600 
17:40	53.8	53.8	53.8	96	52.7	4	10	248	0.01	29.608 
17:45	53.9	53.9	53.9	96	52.8	3	7	270	0.00	29.598 
17:50	53.9	53.9	53.9	96	52.8	3	6	248	0.01	29.597 
17:55	53.9	53.9	53.9	96	52.8	3	7	248	0.00	29.607 
18:00	53.9	53.9	53.9	95	52.5	3	7	248	0.00	29.594 
18:05	53.9	53.9	53.9	95	52.5	2	9	248	0.00	29.583 
18:10	53.9	53.9	53.9	95	52.5	2	6	248	0.00	29.571 
18:15	53.9	53.9	53.9	95	52.5	2	6	248	0.00	29.565 
18:20	53.8	53.8	53.8	95	52.4	1	3	248	0.00	29.570 
18:25	53.8	53.8	53.8	95	52.4	2	6	248	0.00	29.575 
18:30	53.8	53.8	53.8	95	52.4	1	5	248	0.00	29.556 
18:35	53.6	53.6	53.6	95	52.2	1	4	248	0.01	29.550 
18:40	53.5	53.5	53.5	95	52.1	3	5	248	0.00	29.573 
18:45	53.5	53.5	53.5	95	52.1	3	7	248	0.00	29.558 
18:50	53.5	53.5	53.5	95	52.1	1	5	248	0.00	29.525 
18:55	53.3	53.3	53.3	95	51.9	2	6	248	0.00	29.532 
19:00	53.3	53.3	53.3	96	52.2	2	6	248	0.00	29.542 
19:05	53.3	53.3	53.3	95	51.9	1	7	248	0.00	29.513 
19:10	53.3	53.3	53.3	96	52.2	3	9	248	0.00	29.561 
19:15	53.5	53.5	53.5	96	52.4	3	7	248	0.00	29.557 
19:20	53.5	53.5	53.5	96	52.4	3	7	248	0.00	29.556 
19:25	53.5	53.5	53.5	96	52.4	4	11	248	0.01	29.568 
19:30	53.6	53.6	53.6	96	52.5	5	12	270	0.01	29.571 
19:35	52.0	52.0	52.0	94	50.3	7	16	270	0.02	29.578 
19:40	49.8	46.9	49.8	92	47.6	7	12	292	0.01	29.586 
19:45	48.6	46.0	48.6	92	46.4	6	14	270	0.00	29.594 
19:50	46.0	41.9	46.0	88	42.6	8	18	270	0.00	29.613 
19:55	44.1	40.6	44.1	88	40.8	6	14	270	0.00	29.622 
20:00	43.1	39.5	43.1	89	40.1	6	13	292	0.00	29.633 
20:05	42.6	38.9	42.6	90	39.9	6	14	270	0.00	29.636 
20:10	42.2	39.1	42.2	91	39.8	5	11	270	0.00	29.642 
20:15	41.9	41.9	41.9	92	39.7	3	6	270	0.00	29.645 
20:20	41.5	38.2	41.5	91	39.1	5	15	292	0.00	29.649 
20:25	40.9	36.8	40.9	90	38.2	6	14	270	0.00	29.659 
20:30	40.6	38.0	40.6	90	37.9	4	14	292	0.00	29.665 
20:35	40.5	36.4	40.5	89	37.5	6	13	292	0.00	29.674 
20:40	40.3	37.7	40.3	89	37.3	4	17	270	0.00	29.682 
20:45	40.1	35.3	40.1	88	36.8	7	14	270	0.00	29.693 
20:50	39.9	36.4	39.9	87	36.4	5	11	270	0.00	29.694 
20:55	39.8	35.5	39.8	87	36.3	6	14	270	0.00	29.694 
21:00	39.6	35.3	39.6	88	36.3	6	13	270	0.00	29.695 
21:05	39.6	35.3	39.6	87	36.1	6	16	270	0.00	29.700 
21:10	39.5	35.2	39.5	86	35.7	6	11	270	0.00	29.702 
21:15	39.3	34.9	39.3	85	35.2	6	22	270	0.00	29.707 
21:20	39.2	36.4	39.2	86	35.4	4	10	270	0.00	29.708 
21:25	38.9	34.4	38.9	86	35.1	6	12	292	0.00	29.716 
21:30	38.9	36.0	38.9	87	35.4	4	9	270	0.00	29.712 
21:35	38.8	35.1	38.8	87	35.3	5	13	270	0.00	29.709 
21:40	38.8	35.9	38.8	88	35.6	4	9	270	0.00	29.711 
21:45	38.5	34.7	38.5	88	35.3	5	11	270	0.00	29.711 
21:50	38.3	35.4	38.3	88	35.1	4	7	270	0.00	29.720 
21:55	38.2	34.4	38.2	89	35.2	5	11	270	0.00	29.723 
22:00	38.0	33.4	38.0	89	35.1	6	15	270	0.00	29.724 
22:05	37.9	34.0	37.9	89	35.0	5	12	270	0.00	29.723 
22:10	37.9	34.0	37.9	88	34.7	5	11	270	0.00	29.725 
22:15	37.8	34.8	37.8	88	34.6	4	10	270	0.00	29.735 
22:20	37.8	33.9	37.8	87	34.3	5	13	270	0.00	29.737 
22:25	37.6	32.9	37.6	85	33.5	6	13	270	0.00	29.735 
22:30	37.6	33.7	37.6	85	33.5	5	12	270	0.00	29.736 
22:35	37.5	32.8	37.5	86	33.7	6	12	270	0.00	29.740 
22:40	37.2	32.4	37.2	87	33.7	6	13	270	0.00	29.746 
22:45	36.9	32.8	36.9	87	33.4	5	12	270	0.00	29.748 
22:50	36.8	32.7	36.8	87	33.3	5	10	270	0.00	29.750 
22:55	36.5	32.4	36.5	87	33.0	5	12	270	0.00	29.747 
23:00	36.3	32.1	36.3	88	33.1	5	9	270	0.00	29.758 
23:05	35.9	31.7	35.9	88	32.7	5	15	270	0.00	29.766 
23:10	35.8	32.5	35.8	88	32.6	4	9	270	0.00	29.773 
23:15	35.5	32.1	35.5	88	32.3	4	9	270	0.00	29.781 
23:20	35.3	30.2	35.3	87	31.8	6	13	270	0.00	29.787 
23:25	35.2	30.8	35.2	85	31.2	5	9	270	0.00	29.792 
23:30	35.2	30.0	35.2	84	30.9	6	19	270	0.00	29.799 
23:35	35.0	29.8	35.0	83	30.4	6	13	270	0.00	29.803 
23:40	34.7	30.2	34.7	82	29.8	5	13	270	0.00	29.802 
23:45	34.6	29.3	34.6	81	29.4	6	13	270	0.00	29.803 
23:50	34.3	29.0	34.3	80	28.8	6	13	270	0.00	29.802 
23:55	34.1	29.5	34.1	80	28.6	5	11	270	0.00	29.808 

CoCoRaHS
IN-AL-39
A2 Web Hosting
Creative Commons License
GoDaddy
Look for:

loaded 2017-12-12 17:00:35 • last modified 2010-11-18 10:43:29
Privacy PolicyDisclaimer
• wx.awcolley.com is powered by PmWiki v.2002016 •
• all content (unless otherwise noted) © 2017 A W Colley